createdAt,value
2019-05-18T00:00:59.812Z,13.00
2019-05-18T00:03:28.820Z,13.00
2019-05-18T00:05:57.763Z,12.90
2019-05-18T00:08:26.637Z,12.90
2019-05-18T00:10:55.730Z,12.90
2019-05-18T00:13:24.696Z,12.80
2019-05-18T00:15:53.557Z,12.80
2019-05-18T00:18:22.674Z,12.80
2019-05-18T00:20:51.637Z,12.80
2019-05-18T00:23:20.552Z,12.70
2019-05-18T00:25:49.487Z,12.70
2019-05-18T00:28:18.559Z,12.70
2019-05-18T00:30:47.523Z,12.70
2019-05-18T00:33:16.339Z,12.70
2019-05-18T00:35:45.560Z,12.70
2019-05-18T00:38:14.481Z,12.60
2019-05-18T00:40:43.411Z,12.50
2019-05-18T00:43:12.347Z,12.50
2019-05-18T00:45:41.276Z,12.50
2019-05-18T00:48:10.259Z,12.40
2019-05-18T00:50:39.244Z,12.40
2019-05-18T00:53:08.128Z,12.40
2019-05-18T00:55:37.154Z,12.40
2019-05-18T00:58:06.052Z,12.40
2019-05-18T01:00:35.054Z,12.40
2019-05-18T01:03:03.918Z,12.40
2019-05-18T01:05:32.861Z,12.30
2019-05-18T01:08:01.724Z,12.30
2019-05-18T01:10:30.810Z,12.30
2019-05-18T01:12:59.843Z,12.30
2019-05-18T01:15:28.746Z,12.30
2019-05-18T01:17:58.995Z,12.30
2019-05-18T01:20:28.480Z,12.30
2019-05-18T01:22:57.384Z,12.20
2019-05-18T01:25:26.350Z,12.20
2019-05-18T01:27:55.513Z,12.20
2019-05-18T01:30:24.580Z,12.20
2019-05-18T01:32:53.615Z,12.20
2019-05-18T01:35:22.565Z,12.20
2019-05-18T01:37:51.414Z,12.10
2019-05-18T01:40:20.545Z,12.10
2019-05-18T01:42:49.474Z,12.10
2019-05-18T01:45:18.564Z,12.10
2019-05-18T01:47:47.467Z,12.00
2019-05-18T01:50:16.414Z,12.00
2019-05-18T01:52:45.313Z,12.10
2019-05-18T01:55:14.407Z,12.10
2019-05-18T01:57:43.311Z,12.00
2019-05-18T02:00:12.976Z,12.00
2019-05-18T02:02:41.858Z,11.90
2019-05-18T02:05:10.951Z,11.90
2019-05-18T02:07:39.765Z,11.90
2019-05-18T02:10:09.080Z,11.90
2019-05-18T02:12:37.949Z,11.90
2019-05-18T02:15:08.601Z,11.90
2019-05-18T02:17:37.497Z,11.90
2019-05-18T02:20:06.961Z,11.80
2019-05-18T02:22:35.791Z,11.80
2019-05-18T02:25:08.502Z,11.80
2019-05-18T02:27:37.252Z,11.80
2019-05-18T02:30:06.739Z,11.80
2019-05-18T02:32:35.660Z,11.80
2019-05-18T02:35:05.005Z,11.80
2019-05-18T02:37:34.124Z,11.80
2019-05-18T02:40:03.083Z,11.70
2019-05-18T02:42:31.905Z,11.70
2019-05-18T02:45:00.850Z,11.60
2019-05-18T02:47:29.737Z,11.60
2019-05-18T02:49:58.556Z,11.60
2019-05-18T02:52:27.310Z,11.60
2019-05-18T02:54:56.182Z,11.60
2019-05-18T02:57:25.047Z,11.60
2019-05-18T02:59:53.829Z,11.60
2019-05-18T03:02:23.047Z,11.50
2019-05-18T03:04:52.270Z,11.50
2019-05-18T03:07:21.162Z,11.50
2019-05-18T03:09:50.039Z,11.50
2019-05-18T03:12:19.186Z,11.50
2019-05-18T03:14:48.380Z,11.50
2019-05-18T03:17:17.180Z,11.50
2019-05-18T03:19:45.952Z,11.50
2019-05-18T03:22:14.683Z,11.50
2019-05-18T03:24:43.685Z,11.50
2019-05-18T03:27:12.461Z,11.50
2019-05-18T03:29:41.261Z,11.50
2019-05-18T03:32:10.247Z,11.50
2019-05-18T03:34:47.882Z,11.50
2019-05-18T03:37:19.193Z,11.50
2019-05-18T03:39:48.087Z,11.40
2019-05-18T03:42:16.960Z,11.50
2019-05-18T03:44:45.958Z,11.40
2019-05-18T03:47:14.982Z,11.40
2019-05-18T03:49:43.849Z,11.50
2019-05-18T03:52:13.011Z,11.40
2019-05-18T03:54:41.815Z,11.50
2019-05-18T03:57:10.854Z,11.40
2019-05-18T03:59:39.731Z,11.50
2019-05-18T04:02:08.621Z,11.50
2019-05-18T04:04:37.521Z,11.50
2019-05-18T04:07:06.425Z,11.50
2019-05-18T04:09:35.312Z,11.50
2019-05-18T04:12:04.289Z,11.40
2019-05-18T04:14:33.235Z,11.50
2019-05-18T04:17:02.091Z,11.40
2019-05-18T04:19:45.466Z,11.50
2019-05-18T04:22:01.508Z,11.60
2019-05-18T04:24:30.378Z,11.70
2019-05-18T04:26:59.242Z,11.70
2019-05-18T04:29:28.092Z,11.70
2019-05-18T04:31:57.020Z,11.80
2019-05-18T04:34:26.211Z,11.80
2019-05-18T04:36:55.282Z,11.90
2019-05-18T04:39:24.212Z,11.90
2019-05-18T04:41:53.223Z,12.00
2019-05-18T04:44:22.077Z,12.20
2019-05-18T04:46:51.027Z,13.00
2019-05-18T04:49:19.816Z,13.50
2019-05-18T04:51:48.999Z,14.30
2019-05-18T04:54:17.787Z,15.30
2019-05-18T04:56:46.745Z,15.70
2019-05-18T04:59:15.637Z,16.10
2019-05-18T05:01:44.661Z,16.80
2019-05-18T05:04:13.672Z,17.60
2019-05-18T05:06:42.523Z,17.70
2019-05-18T05:09:11.371Z,18.20
2019-05-18T05:11:40.218Z,18.80
2019-05-18T05:14:09.270Z,18.70
2019-05-18T05:16:38.248Z,18.60
2019-05-18T05:19:08.813Z,18.80
2019-05-18T05:21:37.988Z,18.90
2019-05-18T05:24:06.859Z,19.00
2019-05-18T05:26:35.737Z,19.70
2019-05-18T05:29:04.693Z,20.40
2019-05-18T05:31:36.721Z,20.40
2019-05-18T05:34:05.707Z,20.70
2019-05-18T05:36:34.611Z,20.90
2019-05-18T05:39:05.113Z,21.00
2019-05-18T05:41:34.001Z,21.10
2019-05-18T05:44:03.141Z,21.70
2019-05-18T05:46:32.006Z,21.90
2019-05-18T05:49:01.201Z,22.10
2019-05-18T05:51:30.054Z,22.20
2019-05-18T05:53:59.154Z,22.60
2019-05-18T05:56:28.162Z,22.20
2019-05-18T05:58:57.187Z,22.50
2019-05-18T06:01:26.431Z,22.80
2019-05-18T06:03:55.297Z,23.30
2019-05-18T06:06:24.331Z,23.50
2019-05-18T06:08:53.328Z,23.70
2019-05-18T06:11:22.244Z,23.70
2019-05-18T06:13:51.326Z,24.00
2019-05-18T06:16:20.212Z,24.10
2019-05-18T06:18:49.126Z,24.40
2019-05-18T06:21:18.051Z,24.60
2019-05-18T06:23:47.076Z,24.80
2019-05-18T06:26:15.975Z,24.70
2019-05-18T06:28:44.878Z,24.60
2019-05-18T06:31:13.646Z,24.90
2019-05-18T06:33:42.527Z,24.70
2019-05-18T06:36:11.550Z,24.20
2019-05-18T06:38:40.598Z,24.50
2019-05-18T06:41:09.470Z,25.50
2019-05-18T06:43:38.387Z,26.10
2019-05-18T06:46:07.256Z,26.30
2019-05-18T06:48:36.234Z,26.10
2019-05-18T06:51:07.539Z,26.10
2019-05-18T06:53:35.830Z,26.10
2019-05-18T06:56:07.588Z,26.40
2019-05-18T06:58:36.595Z,26.50
2019-05-18T07:01:05.551Z,26.40
2019-05-18T07:03:34.485Z,27.30
2019-05-18T07:06:03.298Z,27.80
2019-05-18T07:08:32.177Z,26.70
2019-05-18T07:11:01.191Z,26.90
2019-05-18T07:13:30.162Z,27.50
2019-05-18T07:15:59.005Z,28.30
2019-05-18T07:18:28.079Z,28.50
2019-05-18T07:20:56.997Z,28.60
2019-05-18T07:23:25.858Z,28.80
2019-05-18T07:25:54.774Z,28.20
2019-05-18T07:28:23.825Z,27.80
2019-05-18T07:30:52.780Z,28.20
2019-05-18T07:33:21.773Z,28.20
2019-05-18T07:35:50.663Z,28.60
2019-05-18T07:38:19.514Z,27.90
2019-05-18T07:40:48.471Z,28.50
2019-05-18T07:43:18.833Z,29.20
2019-05-18T07:45:47.725Z,28.70
2019-05-18T07:48:16.700Z,27.60
2019-05-18T07:50:46.254Z,27.40
2019-05-18T07:53:15.119Z,27.70
2019-05-18T07:55:44.030Z,27.90
2019-05-18T07:58:12.810Z,27.10
2019-05-18T08:00:43.122Z,27.10
2019-05-18T08:03:12.219Z,27.80
2019-05-18T08:05:41.211Z,27.40
2019-05-18T08:08:09.957Z,28.30
2019-05-18T08:10:39.432Z,28.40
2019-05-18T08:13:09.093Z,28.60
2019-05-18T08:15:38.589Z,29.10
2019-05-18T08:18:07.559Z,29.00
2019-05-18T08:20:36.647Z,28.20
2019-05-18T08:23:05.612Z,28.30
2019-05-18T08:25:34.608Z,28.30
2019-05-18T08:28:03.577Z,28.10
2019-05-18T08:30:32.473Z,26.90
2019-05-18T08:33:01.321Z,26.80
2019-05-18T08:35:30.173Z,26.30
2019-05-18T08:37:59.033Z,25.80
2019-05-18T08:40:28.070Z,25.80
2019-05-18T08:42:56.865Z,25.80
2019-05-18T08:45:25.780Z,25.40
2019-05-18T08:47:54.661Z,25.10
2019-05-18T08:50:23.586Z,24.70
2019-05-18T08:52:52.490Z,24.60
2019-05-18T08:55:21.401Z,23.50
2019-05-18T08:57:50.475Z,23.60
2019-05-18T09:00:19.421Z,23.40
2019-05-18T09:02:48.332Z,23.40
2019-05-18T09:05:17.421Z,22.40
2019-05-18T09:07:46.479Z,22.40
2019-05-18T09:10:15.740Z,22.30
2019-05-18T09:12:44.501Z,22.20
2019-05-18T09:15:14.748Z,22.00
2019-05-18T09:17:43.557Z,21.90
2019-05-18T09:20:13.055Z,21.70
2019-05-18T09:22:42.015Z,21.90
2019-05-18T09:25:11.604Z,22.10
2019-05-18T09:27:40.515Z,21.90
2019-05-18T09:30:10.737Z,21.90
2019-05-18T09:32:39.652Z,21.50
2019-05-18T09:35:09.163Z,21.60
2019-05-18T09:37:38.143Z,21.30
2019-05-18T09:40:07.880Z,21.60
2019-05-18T09:42:37.003Z,21.40
2019-05-18T09:45:06.707Z,21.00
2019-05-18T09:47:35.616Z,21.20
2019-05-18T09:50:05.097Z,21.20
2019-05-18T09:52:45.077Z,21.20
2019-05-18T09:55:05.165Z,21.30
2019-05-18T09:57:33.980Z,21.40
2019-05-18T10:00:02.994Z,21.40
2019-05-18T10:02:31.964Z,21.30
2019-05-18T10:05:00.903Z,21.00
2019-05-18T10:07:29.760Z,20.90
2019-05-18T10:09:58.636Z,21.00
2019-05-18T10:12:27.468Z,21.00
2019-05-18T10:14:56.530Z,21.00
2019-05-18T10:17:25.573Z,21.10
2019-05-18T10:19:54.515Z,21.10
2019-05-18T10:22:23.484Z,21.10
2019-05-18T10:24:52.365Z,21.00
2019-05-18T10:27:21.291Z,20.80
2019-05-18T10:29:50.287Z,20.90
2019-05-18T10:32:19.228Z,20.90
2019-05-18T10:34:48.226Z,20.80
2019-05-18T10:37:17.183Z,20.90
2019-05-18T10:39:46.102Z,21.00
2019-05-18T10:42:15.648Z,20.80
2019-05-18T10:44:44.561Z,20.80
2019-05-18T10:47:13.345Z,20.80
2019-05-18T10:49:42.165Z,20.90
2019-05-18T10:52:11.091Z,20.80
2019-05-18T10:54:40.065Z,20.60
2019-05-18T10:57:09.130Z,20.60
2019-05-18T10:59:38.092Z,20.50
2019-05-18T11:02:07.119Z,20.60
2019-05-18T11:04:36.132Z,20.60
2019-05-18T11:07:40.769Z,20.40
2019-05-18T11:10:10.582Z,20.30
2019-05-18T11:12:39.742Z,20.30
2019-05-18T11:15:09.566Z,20.50
2019-05-18T11:17:38.727Z,20.50
2019-05-18T11:20:08.774Z,20.40
2019-05-18T11:22:37.705Z,20.30
2019-05-18T11:25:07.332Z,20.40
2019-05-18T11:27:36.293Z,20.50
2019-05-18T11:30:05.914Z,20.50
2019-05-18T11:32:34.977Z,20.60
2019-05-18T11:35:04.119Z,20.70
2019-05-18T11:37:33.000Z,20.70
2019-05-18T11:40:02.090Z,20.70
2019-05-18T11:42:31.111Z,20.70
2019-05-18T11:44:59.957Z,20.60
2019-05-18T11:47:28.803Z,20.60
2019-05-18T11:49:57.717Z,20.60
2019-05-18T11:52:26.689Z,20.60
2019-05-18T11:54:55.514Z,20.60
2019-05-18T11:57:24.484Z,20.70
2019-05-18T12:00:14.129Z,20.70
2019-05-18T12:02:43.184Z,20.70
2019-05-18T12:05:12.424Z,20.70
2019-05-18T12:07:41.411Z,20.60
2019-05-18T12:10:11.162Z,20.60
2019-05-18T12:12:39.990Z,20.60
2019-05-18T12:15:09.842Z,20.70
2019-05-18T12:17:38.920Z,20.70
2019-05-18T12:20:08.749Z,20.70
2019-05-18T12:22:37.930Z,20.70
2019-05-18T12:25:07.895Z,20.60
2019-05-18T12:27:37.014Z,20.50
2019-05-18T12:30:06.480Z,20.60
2019-05-18T12:32:35.446Z,20.50
2019-05-18T12:35:04.676Z,20.50
2019-05-18T12:37:33.592Z,20.50
2019-05-18T12:40:02.569Z,20.40
2019-05-18T12:42:31.527Z,20.30
2019-05-18T12:45:00.614Z,20.40
2019-05-18T12:47:29.393Z,20.30
2019-05-18T12:49:58.357Z,20.40
2019-05-18T12:52:27.273Z,20.40
2019-05-18T12:54:56.210Z,20.30
2019-05-18T12:57:25.084Z,20.30
2019-05-18T12:59:54.015Z,20.30
2019-05-18T13:02:22.979Z,20.30
2019-05-18T13:04:51.816Z,20.30
2019-05-18T13:07:20.691Z,20.30
2019-05-18T13:09:49.683Z,20.20
2019-05-18T13:12:18.512Z,20.10
2019-05-18T13:14:47.369Z,20.00
2019-05-18T13:17:16.521Z,20.10
2019-05-18T13:19:45.612Z,20.10
2019-05-18T13:22:14.532Z,20.10
2019-05-18T13:24:45.618Z,20.00
2019-05-18T13:27:39.621Z,20.10
2019-05-18T13:30:04.670Z,20.10
2019-05-18T13:32:33.527Z,20.10
2019-05-18T13:35:02.461Z,20.10
2019-05-18T13:37:31.252Z,20.10
2019-05-18T13:40:00.097Z,20.00
2019-05-18T13:42:31.363Z,20.00
2019-05-18T13:45:00.212Z,20.10
2019-05-18T13:47:29.015Z,20.10
2019-05-18T13:49:58.421Z,20.10
2019-05-18T13:52:27.433Z,20.00
2019-05-18T13:55:03.611Z,20.00
2019-05-18T13:57:27.060Z,20.10
2019-05-18T13:59:55.830Z,20.00
2019-05-18T14:02:24.824Z,20.00
2019-05-18T14:04:53.932Z,20.00
2019-05-18T14:07:22.795Z,20.00
2019-05-18T14:09:51.642Z,19.90
2019-05-18T14:12:20.409Z,19.90
2019-05-18T14:14:49.269Z,19.90
2019-05-18T14:17:18.143Z,20.00
2019-05-18T14:19:46.972Z,20.00
2019-05-18T14:22:15.801Z,20.00
2019-05-18T14:24:44.656Z,20.00
2019-05-18T14:27:13.453Z,20.00
2019-05-18T14:29:42.452Z,19.90
2019-05-18T14:32:11.398Z,19.90
2019-05-18T14:34:40.468Z,19.90
2019-05-18T14:37:09.411Z,19.90
2019-05-18T14:39:38.263Z,19.90
2019-05-18T14:42:29.299Z,19.90
2019-05-18T14:44:58.286Z,19.90
2019-05-18T14:47:27.608Z,19.90
2019-05-18T14:49:56.539Z,19.90
2019-05-18T14:52:25.469Z,19.90
2019-05-18T14:54:54.332Z,19.90
2019-05-18T14:57:25.607Z,19.90
2019-05-18T14:59:53.862Z,19.90
2019-05-18T15:02:22.652Z,20.00
2019-05-18T15:04:55.096Z,20.00
2019-05-18T15:07:22.188Z,20.00
2019-05-18T15:09:50.922Z,19.90
2019-05-18T15:12:19.948Z,19.90
2019-05-18T15:14:48.762Z,19.90
2019-05-18T15:17:17.509Z,19.90
2019-05-18T15:19:46.313Z,19.90
2019-05-18T15:22:15.186Z,19.90
2019-05-18T15:24:44.171Z,19.90
2019-05-18T15:27:13.113Z,19.90
2019-05-18T15:29:42.222Z,19.90
2019-05-18T15:32:11.029Z,19.90
2019-05-18T15:34:39.959Z,19.90
2019-05-18T15:37:09.015Z,19.90
2019-05-18T15:39:38.034Z,19.90
2019-05-18T15:42:07.080Z,20.00
2019-05-18T15:44:36.038Z,19.90
2019-05-18T15:47:05.194Z,19.90
2019-05-18T15:49:34.202Z,20.00
2019-05-18T15:52:03.071Z,19.90
2019-05-18T15:54:31.970Z,19.90
2019-05-18T15:57:00.899Z,19.90
2019-05-18T15:59:29.839Z,19.90
2019-05-18T16:01:58.628Z,19.90
2019-05-18T16:04:27.569Z,19.90
2019-05-18T16:06:56.521Z,19.90
2019-05-18T16:09:25.399Z,20.00
2019-05-18T16:11:54.289Z,19.90
2019-05-18T16:14:23.181Z,19.90
2019-05-18T16:16:54.839Z,19.90
2019-05-18T16:19:22.629Z,19.90
2019-05-18T16:21:51.955Z,19.90
2019-05-18T16:24:20.800Z,19.90
2019-05-18T16:26:49.773Z,19.90
2019-05-18T16:29:18.593Z,19.90
2019-05-18T16:31:49.979Z,19.90
2019-05-18T16:34:18.901Z,19.90
2019-05-18T16:36:47.840Z,19.90
2019-05-18T16:39:16.680Z,19.90
2019-05-18T16:41:45.816Z,19.90
2019-05-18T16:44:14.698Z,19.90
2019-05-18T16:46:43.502Z,19.90
2019-05-18T16:49:12.584Z,19.90
2019-05-18T16:51:41.944Z,19.90
2019-05-18T16:54:11.024Z,19.90
2019-05-18T16:56:39.983Z,19.90
2019-05-18T16:59:08.827Z,19.90
2019-05-18T17:01:37.673Z,19.90
2019-05-18T17:04:06.582Z,19.90
2019-05-18T17:06:35.449Z,19.90
2019-05-18T17:09:05.713Z,19.90
2019-05-18T17:11:34.710Z,19.90
2019-05-18T17:14:04.034Z,19.90
2019-05-18T17:16:32.955Z,19.90
2019-05-18T17:19:01.826Z,19.80
2019-05-18T17:21:32.788Z,19.90
2019-05-18T17:24:01.694Z,19.90
2019-05-18T17:26:30.576Z,19.80
2019-05-18T17:28:59.468Z,19.80
2019-05-18T17:31:28.258Z,19.80
2019-05-18T17:33:57.130Z,19.80
2019-05-18T17:36:25.964Z,19.80
2019-05-18T17:38:54.992Z,19.80
2019-05-18T17:41:23.911Z,19.80
2019-05-18T17:43:52.914Z,19.80
2019-05-18T17:46:21.941Z,19.80
2019-05-18T17:48:50.800Z,19.80
2019-05-18T17:51:19.800Z,19.70
2019-05-18T17:53:48.716Z,19.70
2019-05-18T17:56:17.597Z,19.70
2019-05-18T17:58:46.615Z,19.70
2019-05-18T18:01:15.458Z,19.60
2019-05-18T18:03:44.366Z,19.60
2019-05-18T18:06:13.349Z,19.60
2019-05-18T18:08:42.206Z,19.60
2019-05-18T18:11:11.972Z,19.60
2019-05-18T18:13:40.903Z,19.50
2019-05-18T18:16:09.797Z,19.50
2019-05-18T18:18:38.700Z,19.50
2019-05-18T18:21:07.770Z,19.40
2019-05-18T18:23:36.647Z,19.40
2019-05-18T18:26:05.820Z,19.40
2019-05-18T18:28:34.619Z,19.40
2019-05-18T18:31:03.532Z,19.30
2019-05-18T18:33:32.452Z,19.30
2019-05-18T18:36:01.216Z,19.30
2019-05-18T18:38:30.304Z,19.20
2019-05-18T18:40:59.136Z,19.20
2019-05-18T18:43:28.376Z,19.20
2019-05-18T18:45:57.132Z,19.10
2019-05-18T18:48:26.620Z,19.10
2019-05-18T18:50:55.553Z,19.10
2019-05-18T18:53:24.474Z,19.00
2019-05-18T18:55:53.329Z,19.00
2019-05-18T18:58:22.077Z,18.90
2019-05-18T19:00:50.899Z,18.90
2019-05-18T19:03:19.807Z,18.90
2019-05-18T19:05:48.733Z,18.80
2019-05-18T19:08:17.944Z,18.80
2019-05-18T19:10:47.267Z,18.70
2019-05-18T19:13:16.601Z,18.70
2019-05-18T19:16:04.771Z,18.70
2019-05-18T19:18:33.763Z,18.60
2019-05-18T19:21:02.759Z,18.50
2019-05-18T19:23:31.688Z,18.50
2019-05-18T19:26:00.500Z,18.40
2019-05-18T19:28:29.370Z,18.40
2019-05-18T19:31:01.059Z,18.40
2019-05-18T19:33:29.997Z,18.30
2019-05-18T19:35:58.939Z,18.30
2019-05-18T19:38:27.852Z,18.20
2019-05-18T19:40:57.238Z,18.20
2019-05-18T19:43:26.252Z,18.20
2019-05-18T19:45:55.162Z,18.10
2019-05-18T19:48:24.377Z,18.10
2019-05-18T19:50:53.190Z,18.00
2019-05-18T19:53:22.151Z,18.00
2019-05-18T19:55:51.621Z,18.00
2019-05-18T19:58:20.640Z,17.90
2019-05-18T20:00:53.200Z,17.90
2019-05-18T20:03:22.345Z,17.80
2019-05-18T20:05:51.240Z,17.80
2019-05-18T20:08:20.164Z,17.80
2019-05-18T20:10:49.127Z,17.70
2019-05-18T20:13:18.009Z,17.70
2019-05-18T20:15:46.899Z,17.60
2019-05-18T20:18:15.976Z,17.60
2019-05-18T20:20:44.801Z,17.50
2019-05-18T20:23:13.690Z,17.50
2019-05-18T20:25:42.670Z,17.50
2019-05-18T20:28:22.873Z,17.50
2019-05-18T20:30:42.361Z,17.40
2019-05-18T20:33:11.354Z,17.40
2019-05-18T20:35:40.281Z,17.40
2019-05-18T20:38:09.284Z,17.30
2019-05-18T20:40:38.154Z,17.30
2019-05-18T20:43:07.120Z,17.30
2019-05-18T20:45:36.166Z,17.20
2019-05-18T20:48:05.249Z,17.20
2019-05-18T20:50:34.167Z,17.20
2019-05-18T20:53:03.178Z,17.10
2019-05-18T20:55:32.034Z,17.10
2019-05-18T20:58:01.003Z,17.00
2019-05-18T21:00:29.887Z,17.00
2019-05-18T21:02:58.885Z,17.00
2019-05-18T21:05:27.859Z,16.90
2019-05-18T21:07:56.888Z,16.80
2019-05-18T21:10:25.810Z,16.80
2019-05-18T21:12:54.754Z,16.80
2019-05-18T21:15:23.636Z,16.80
2019-05-18T21:17:52.712Z,16.70
2019-05-18T21:20:21.598Z,16.70
2019-05-18T21:22:51.618Z,16.60
2019-05-18T21:25:20.368Z,16.60
2019-05-18T21:27:49.291Z,16.60
2019-05-18T21:30:18.247Z,16.50
2019-05-18T21:32:47.097Z,16.40
2019-05-18T21:35:16.075Z,16.40
2019-05-18T21:37:46.009Z,16.40
2019-05-18T21:40:16.528Z,16.40
2019-05-18T21:42:45.620Z,16.30
2019-05-18T21:45:14.830Z,16.30
2019-05-18T21:47:43.628Z,16.30
2019-05-18T21:50:12.867Z,16.20
2019-05-18T21:52:42.203Z,16.20
2019-05-18T21:55:11.382Z,16.20
2019-05-18T21:57:40.231Z,16.10
2019-05-18T22:00:09.852Z,16.10
2019-05-18T22:02:38.930Z,16.10
2019-05-18T22:05:08.001Z,16.00
2019-05-18T22:07:36.957Z,16.00
2019-05-18T22:10:06.670Z,16.00
2019-05-18T22:12:35.632Z,15.90
2019-05-18T22:15:05.310Z,15.90
2019-05-18T22:17:37.250Z,15.90
2019-05-18T22:20:06.254Z,15.80
2019-05-18T22:22:35.430Z,15.80
2019-05-18T22:25:04.920Z,15.80
2019-05-18T22:27:34.743Z,15.80
2019-05-18T22:30:04.514Z,15.70
2019-05-18T22:32:33.481Z,15.70
2019-05-18T22:35:02.245Z,15.60
2019-05-18T22:37:31.317Z,15.60
2019-05-18T22:40:00.173Z,15.60
2019-05-18T22:42:29.687Z,15.50
2019-05-18T22:44:58.635Z,15.50
2019-05-18T22:47:27.683Z,15.40
2019-05-18T22:49:56.664Z,15.40
2019-05-18T22:52:25.808Z,15.40
2019-05-18T22:54:55.097Z,15.40
2019-05-18T22:57:24.139Z,15.30
2019-05-18T22:59:53.023Z,15.30
2019-05-18T23:02:22.041Z,15.30
2019-05-18T23:04:51.441Z,15.30
2019-05-18T23:07:20.496Z,15.30
2019-05-18T23:09:49.435Z,15.20
2019-05-18T23:12:18.373Z,15.20
2019-05-18T23:14:47.404Z,15.20
2019-05-18T23:17:16.755Z,15.20
2019-05-18T23:19:45.770Z,15.10
2019-05-18T23:22:14.917Z,15.10
2019-05-18T23:24:43.871Z,15.10
2019-05-18T23:27:13.140Z,15.10
2019-05-18T23:29:42.187Z,15.00
2019-05-18T23:32:11.249Z,15.00
2019-05-18T23:34:40.506Z,15.00
2019-05-18T23:37:09.393Z,15.00
2019-05-18T23:39:38.229Z,14.90
2019-05-18T23:42:08.277Z,14.90
2019-05-18T23:44:37.287Z,14.90
2019-05-18T23:47:06.571Z,14.80
2019-05-18T23:49:35.414Z,14.80
2019-05-18T23:52:04.445Z,14.80
2019-05-18T23:54:33.216Z,14.70
2019-05-18T23:57:02.222Z,14.70
2019-05-18T23:59:31.076Z,14.70
